NRT412 KIAH-KICT
Flight info
| Callsign | NRT412 |
|---|---|
| Flight time | 1h 19m |
| Altitude | 38000 |
| Route | STYCK8 WTSON BYP HUSKA |
| Aircraft | B77W/H-SDE1E2E3FGHIJ2J3J4J5M1RWXY/LB1D1 |
Departure
| Time | 2026-04-25 22:33 |
|---|---|
| Airport | George Bush Intercontinental Airport (KIAH) |
Arrival
| Time | 2026-04-25 23:52 |
|---|---|
| Airport | Wichita Dwight D. Eisenhower National Airport (KICT) |
| Time | Latitude | Longitude | Altitude | Speed | Heading |
|---|---|---|---|---|---|
| 2026-04-25 21:55 | 29.98842 | -95.33312 | 106 ft | 0 kts | 180° |
| 2026-04-25 22:21 | 29.98855 | -95.33312 | 106 ft | 2 kts | 181° |
| 2026-04-25 22:21 | 29.98869 | -95.33312 | 106 ft | 2 kts | 181° |
| 2026-04-25 22:21 | 29.98885 | -95.33312 | 106 ft | 2 kts | 180° |
| 2026-04-25 22:21 | 29.98900 | -95.33310 | 106 ft | 2 kts | 190° |
| 2026-04-25 22:22 | 29.98914 | -95.33306 | 106 ft | 2 kts | 201° |
| 2026-04-25 22:22 | 29.98928 | -95.33298 | 105 ft | 2 kts | 210° |
| 2026-04-25 22:22 | 29.98940 | -95.33289 | 105 ft | 2 kts | 220° |
| 2026-04-25 22:22 | 29.98951 | -95.33277 | 105 ft | 2 kts | 230° |
| 2026-04-25 22:23 | 29.98960 | -95.33263 | 105 ft | 2 kts | 239° |
| 2026-04-25 22:23 | 29.98967 | -95.33248 | 105 ft | 2 kts | 249° |
| 2026-04-25 22:23 | 29.98971 | -95.33232 | 104 ft | 2 kts | 258° |
| 2026-04-25 22:23 | 29.98973 | -95.33215 | 104 ft | 2 kts | 267° |
| 2026-04-25 22:24 | 29.98973 | -95.33208 | 104 ft | 0 kts | 271° |
| 2026-04-25 22:26 | 29.98973 | -95.33212 | 104 ft | 2 kts | 268° |
| 2026-04-25 22:26 | 29.98973 | -95.33261 | 105 ft | 8 kts | 269° |
| 2026-04-25 22:26 | 29.98972 | -95.33335 | 106 ft | 9 kts | 269° |
| 2026-04-25 22:26 | 29.98971 | -95.33432 | 106 ft | 14 kts | 273° |
| 2026-04-25 22:27 | 29.98971 | -95.33525 | 106 ft | 12 kts | 268° |
| 2026-04-25 22:27 | 29.98971 | -95.33609 | 106 ft | 11 kts | 279° |
| 2026-04-25 22:27 | 29.99010 | -95.33662 | 106 ft | 10 kts | 329° |
| 2026-04-25 22:27 | 29.99083 | -95.33745 | 106 ft | 21 kts | 282° |
| 2026-04-25 22:28 | 29.99087 | -95.33920 | 106 ft | 21 kts | 270° |
| 2026-04-25 22:28 | 29.99087 | -95.34100 | 106 ft | 25 kts | 270° |
| 2026-04-25 22:28 | 29.99088 | -95.34315 | 106 ft | 27 kts | 270° |
| 2026-04-25 22:28 | 29.99087 | -95.34529 | 106 ft | 26 kts | 270° |
| 2026-04-25 22:29 | 29.99086 | -95.34734 | 106 ft | 24 kts | 270° |
| 2026-04-25 22:29 | 29.99087 | -95.34929 | 104 ft | 24 kts | 271° |
| 2026-04-25 22:29 | 29.99088 | -95.35126 | 103 ft | 24 kts | 271° |
| 2026-04-25 22:30 | 29.99082 | -95.35482 | 105 ft | 20 kts | 264° |
| 2026-04-25 22:30 | 29.99088 | -95.35644 | 105 ft | 19 kts | 276° |
| 2026-04-25 22:30 | 29.99097 | -95.35796 | 106 ft | 18 kts | 274° |
| 2026-04-25 22:30 | 29.99094 | -95.35890 | 106 ft | 17 kts | 261° |
| 2026-04-25 22:31 | 29.99027 | -95.36036 | 106 ft | 13 kts | 198° |
| 2026-04-25 22:31 | 29.98941 | -95.36003 | 105 ft | 13 kts | 154° |
| 2026-04-25 22:31 | 29.98851 | -95.36000 | 103 ft | 14 kts | 218° |
| 2026-04-25 22:31 | 29.98787 | -95.36087 | 105 ft | 13 kts | 222° |
| 2026-04-25 22:32 | 29.98719 | -95.36098 | 104 ft | 0 kts | 154° |
| 2026-04-25 22:32 | 29.98654 | -95.36060 | 103 ft | 33 kts | 152° |
| 2026-04-25 22:32 | 29.98145 | -95.35748 | 104 ft | 132 kts | 152° |
| 2026-04-25 22:32 | 29.97151 | -95.35146 | 527 ft | 183 kts | 150° |
| 2026-04-25 22:33 | 29.95952 | -95.34429 | 1616 ft | 210 kts | 152° |
| 2026-04-25 22:33 | 29.94655 | -95.33833 | 2932 ft | 206 kts | 166° |
| 2026-04-25 22:33 | 29.93176 | -95.33947 | 3660 ft | 227 kts | 199° |
| 2026-04-25 22:33 | 29.91847 | -95.35003 | 4393 ft | 248 kts | 223° |
| 2026-04-25 22:34 | 29.90695 | -95.36542 | 5226 ft | 264 kts | 237° |
| 2026-04-25 22:34 | 29.90133 | -95.38608 | 6042 ft | 282 kts | 268° |
| 2026-04-25 22:34 | 29.90546 | -95.40775 | 7034 ft | 290 kts | 297° |
| 2026-04-25 22:34 | 29.91924 | -95.42477 | 8000 ft | 297 kts | 330° |
| 2026-04-25 22:35 | 29.93890 | -95.43118 | 8937 ft | 303 kts | 1° |
| 2026-04-25 22:35 | 29.95977 | -95.42879 | 9929 ft | 306 kts | 8° |
| 2026-04-25 22:35 | 29.98088 | -95.42501 | 10769 ft | 315 kts | 9° |
| 2026-04-25 22:35 | 30.00327 | -95.42085 | 11450 ft | 332 kts | 9° |
| 2026-04-25 22:36 | 30.02643 | -95.41656 | 12130 ft | 347 kts | 8° |
| 2026-04-25 22:36 | 30.05063 | -95.41203 | 12820 ft | 363 kts | 8° |
| 2026-04-25 22:36 | 30.07638 | -95.40897 | 13512 ft | 377 kts | 359° |
| 2026-04-25 22:36 | 30.10274 | -95.41193 | 14209 ft | 388 kts | 347° |
| 2026-04-25 22:37 | 30.12889 | -95.42132 | 14928 ft | 398 kts | 335° |
| 2026-04-25 22:37 | 30.15387 | -95.43520 | 15755 ft | 405 kts | 332° |
| 2026-04-25 22:37 | 30.17917 | -95.44983 | 16753 ft | 407 kts | 332° |
| 2026-04-25 22:37 | 30.20450 | -95.46437 | 17727 ft | 409 kts | 332° |
| 2026-04-25 22:38 | 30.23012 | -95.47901 | 18590 ft | 414 kts | 331° |
| 2026-04-25 22:38 | 30.25604 | -95.49376 | 19429 ft | 419 kts | 331° |
| 2026-04-25 22:38 | 30.28234 | -95.50869 | 20280 ft | 423 kts | 331° |
| 2026-04-25 22:38 | 30.30871 | -95.52364 | 21095 ft | 427 kts | 330° |
| 2026-04-25 22:39 | 30.33536 | -95.53873 | 21876 ft | 431 kts | 330° |
| 2026-04-25 22:39 | 30.36235 | -95.55402 | 22649 ft | 436 kts | 330° |
| 2026-04-25 22:39 | 30.38969 | -95.56950 | 23417 ft | 440 kts | 330° |
| 2026-04-25 22:39 | 30.41739 | -95.58519 | 24166 ft | 445 kts | 330° |
| 2026-04-25 22:40 | 30.44540 | -95.60105 | 24904 ft | 449 kts | 330° |
| 2026-04-25 22:40 | 30.47362 | -95.61704 | 25634 ft | 453 kts | 330° |
| 2026-04-25 22:40 | 30.50224 | -95.63327 | 26366 ft | 457 kts | 330° |
| 2026-04-25 22:40 | 30.53089 | -95.64952 | 27111 ft | 461 kts | 330° |
| 2026-04-25 22:41 | 30.55985 | -95.66549 | 27903 ft | 465 kts | 331° |
| 2026-04-25 22:41 | 30.58915 | -95.68106 | 28736 ft | 467 kts | 331° |
| 2026-04-25 22:41 | 30.61866 | -95.69672 | 29584 ft | 468 kts | 330° |
| 2026-04-25 22:41 | 30.64827 | -95.71247 | 30611 ft | 465 kts | 330° |
| 2026-04-25 22:42 | 30.67758 | -95.72807 | 31771 ft | 457 kts | 330° |
| 2026-04-25 22:42 | 30.70597 | -95.74320 | 32837 ft | 450 kts | 329° |
| 2026-04-25 22:42 | 30.73429 | -95.75832 | 33802 ft | 445 kts | 329° |
| 2026-04-25 22:42 | 30.76211 | -95.77320 | 34752 ft | 441 kts | 329° |
| 2026-04-25 22:43 | 30.78985 | -95.78805 | 35724 ft | 436 kts | 329° |
| 2026-04-25 22:43 | 30.81721 | -95.80272 | 36634 ft | 431 kts | 328° |
| 2026-04-25 22:43 | 30.84403 | -95.81710 | 37454 ft | 427 kts | 328° |
| 2026-04-25 22:43 | 30.87117 | -95.83170 | 37885 ft | 429 kts | 328° |
| 2026-04-25 22:44 | 30.92511 | -95.86068 | 37952 ft | 419 kts | 327° |
| 2026-04-25 22:44 | 30.97707 | -95.88860 | 37839 ft | 404 kts | 327° |
| 2026-04-25 22:45 | 31.02873 | -95.91650 | 37793 ft | 410 kts | 327° |
| 2026-04-25 22:45 | 31.08059 | -95.94450 | 37797 ft | 410 kts | 327° |
| 2026-04-25 22:46 | 31.13376 | -95.96954 | 37802 ft | 420 kts | 336° |
| 2026-04-25 22:46 | 31.19210 | -95.98367 | 37819 ft | 426 kts | 340° |
| 2026-04-25 22:47 | 31.25017 | -95.99665 | 37822 ft | 424 kts | 339° |
| 2026-04-25 22:47 | 31.30790 | -96.00966 | 37811 ft | 424 kts | 339° |
| 2026-04-25 22:48 | 31.36607 | -96.02283 | 37805 ft | 424 kts | 339° |
| 2026-04-25 22:48 | 31.42365 | -96.03590 | 37807 ft | 423 kts | 339° |
| 2026-04-25 22:49 | 31.48185 | -96.04913 | 37804 ft | 423 kts | 339° |
| 2026-04-25 22:49 | 31.53964 | -96.06229 | 37799 ft | 423 kts | 339° |
| 2026-04-25 22:50 | 31.59721 | -96.07542 | 37799 ft | 423 kts | 339° |
| 2026-04-25 22:50 | 31.65488 | -96.08859 | 37799 ft | 422 kts | 339° |
| 2026-04-25 22:51 | 31.71271 | -96.10181 | 37797 ft | 421 kts | 339° |
| 2026-04-25 22:51 | 31.77052 | -96.11506 | 37796 ft | 421 kts | 339° |
| 2026-04-25 22:52 | 31.82803 | -96.12824 | 37794 ft | 421 kts | 339° |
| 2026-04-25 22:52 | 31.87580 | -96.13921 | 37793 ft | 421 kts | 339° |
| 2026-04-25 22:53 | 31.94340 | -96.15475 | 37790 ft | 422 kts | 339° |
| 2026-04-25 22:53 | 32.00116 | -96.16806 | 37786 ft | 422 kts | 339° |
| 2026-04-25 22:54 | 32.05872 | -96.18132 | 37785 ft | 422 kts | 339° |
| 2026-04-25 22:54 | 32.11645 | -96.19463 | 37788 ft | 422 kts | 339° |
| 2026-04-25 22:55 | 32.17430 | -96.20788 | 37785 ft | 424 kts | 341° |
| 2026-04-25 22:55 | 32.20406 | -96.21133 | 37784 ft | 435 kts | 347° |
| 2026-04-25 22:55 | 32.23439 | -96.21201 | 37787 ft | 437 kts | 348° |
| 2026-04-25 22:56 | 32.29515 | -96.21291 | 37785 ft | 437 kts | 348° |
| 2026-04-25 22:56 | 32.35610 | -96.21387 | 37786 ft | 437 kts | 348° |
| 2026-04-25 22:57 | 32.41704 | -96.21487 | 37785 ft | 437 kts | 348° |
| 2026-04-25 22:57 | 32.47789 | -96.21587 | 37785 ft | 437 kts | 348° |
| 2026-04-25 22:58 | 32.53849 | -96.21690 | 37784 ft | 437 kts | 348° |
| 2026-04-25 22:58 | 32.59960 | -96.21796 | 37783 ft | 438 kts | 348° |
| 2026-04-25 22:59 | 32.66063 | -96.21899 | 37783 ft | 439 kts | 348° |
| 2026-04-25 22:59 | 32.72161 | -96.22002 | 37783 ft | 439 kts | 348° |
| 2026-04-25 23:00 | 32.78274 | -96.22105 | 37783 ft | 440 kts | 348° |
| 2026-04-25 23:00 | 32.84420 | -96.22211 | 37781 ft | 440 kts | 348° |
| 2026-04-25 23:01 | 32.90512 | -96.22316 | 37774 ft | 440 kts | 349° |
| 2026-04-25 23:01 | 32.96656 | -96.22421 | 37768 ft | 440 kts | 349° |
| 2026-04-25 23:02 | 33.02821 | -96.22528 | 37769 ft | 441 kts | 349° |
| 2026-04-25 23:02 | 33.08986 | -96.22634 | 37774 ft | 442 kts | 349° |
| 2026-04-25 23:03 | 33.15156 | -96.22740 | 37783 ft | 442 kts | 349° |
| 2026-04-25 23:03 | 33.21312 | -96.22847 | 37786 ft | 443 kts | 349° |
| 2026-04-25 23:04 | 33.27483 | -96.22954 | 37786 ft | 444 kts | 349° |
| 2026-04-25 23:04 | 33.33679 | -96.23061 | 37782 ft | 445 kts | 349° |
| 2026-04-25 23:05 | 33.39900 | -96.23169 | 37778 ft | 445 kts | 349° |
| 2026-04-25 23:05 | 33.46081 | -96.23277 | 37774 ft | 445 kts | 349° |
| 2026-04-25 23:06 | 33.52297 | -96.23391 | 37767 ft | 444 kts | 348° |
| 2026-04-25 23:06 | 33.58312 | -96.24417 | 37766 ft | 433 kts | 340° |
| 2026-04-25 23:07 | 33.64241 | -96.25754 | 37763 ft | 433 kts | 340° |
| 2026-04-25 23:07 | 33.70155 | -96.27087 | 37761 ft | 433 kts | 340° |
| 2026-04-25 23:08 | 33.76080 | -96.28421 | 37760 ft | 434 kts | 340° |
| 2026-04-25 23:08 | 33.81992 | -96.29754 | 37761 ft | 434 kts | 340° |
| 2026-04-25 23:09 | 33.87930 | -96.31094 | 37764 ft | 435 kts | 340° |
| 2026-04-25 23:09 | 33.93920 | -96.32447 | 37767 ft | 436 kts | 340° |
| 2026-04-25 23:10 | 33.99852 | -96.33788 | 37771 ft | 435 kts | 340° |
| 2026-04-25 23:10 | 34.05834 | -96.35143 | 37774 ft | 435 kts | 340° |
| 2026-04-25 23:11 | 34.11780 | -96.36492 | 37779 ft | 435 kts | 340° |
| 2026-04-25 23:11 | 34.17718 | -96.37841 | 37779 ft | 435 kts | 340° |
| 2026-04-25 23:12 | 34.23692 | -96.39200 | 37776 ft | 435 kts | 340° |
| 2026-04-25 23:12 | 34.29614 | -96.40550 | 37774 ft | 435 kts | 340° |
| 2026-04-25 23:13 | 34.35589 | -96.41912 | 37776 ft | 435 kts | 340° |
| 2026-04-25 23:13 | 34.41536 | -96.43271 | 37778 ft | 435 kts | 340° |
| 2026-04-25 23:14 | 34.47482 | -96.44632 | 37770 ft | 436 kts | 340° |
| 2026-04-25 23:14 | 34.53428 | -96.45994 | 37763 ft | 436 kts | 340° |
| 2026-04-25 23:15 | 34.59380 | -96.47360 | 37763 ft | 435 kts | 340° |
| 2026-04-25 23:15 | 34.65336 | -96.48729 | 37762 ft | 435 kts | 340° |
| 2026-04-25 23:16 | 34.71315 | -96.50105 | 37755 ft | 436 kts | 340° |
| 2026-04-25 23:16 | 34.77259 | -96.51475 | 37750 ft | 436 kts | 340° |
| 2026-04-25 23:17 | 34.83273 | -96.52863 | 37750 ft | 436 kts | 340° |
| 2026-04-25 23:17 | 34.89225 | -96.54240 | 37751 ft | 437 kts | 340° |
| 2026-04-25 23:18 | 34.95198 | -96.55623 | 37752 ft | 436 kts | 340° |
| 2026-04-25 23:18 | 35.01172 | -96.57007 | 37753 ft | 436 kts | 340° |
| 2026-04-25 23:19 | 35.07120 | -96.58388 | 37755 ft | 436 kts | 340° |
| 2026-04-25 23:19 | 35.13084 | -96.59775 | 37761 ft | 436 kts | 340° |
| 2026-04-25 23:20 | 35.19060 | -96.61166 | 37763 ft | 436 kts | 340° |
| 2026-04-25 23:20 | 35.25010 | -96.62554 | 37765 ft | 437 kts | 340° |
| 2026-04-25 23:21 | 35.31003 | -96.63955 | 37765 ft | 438 kts | 340° |
| 2026-04-25 23:21 | 35.36984 | -96.65354 | 37775 ft | 438 kts | 340° |
| 2026-04-25 23:22 | 35.42941 | -96.66749 | 37783 ft | 438 kts | 340° |
| 2026-04-25 23:23 | 35.51937 | -96.68861 | 37785 ft | 438 kts | 340° |
| 2026-04-25 23:23 | 35.57929 | -96.70270 | 37786 ft | 438 kts | 340° |
| 2026-04-25 23:24 | 35.63908 | -96.71679 | 37788 ft | 438 kts | 340° |
| 2026-04-25 23:24 | 35.69903 | -96.73093 | 37793 ft | 438 kts | 340° |
| 2026-04-25 23:25 | 35.75897 | -96.74509 | 37795 ft | 438 kts | 340° |
| 2026-04-25 23:25 | 35.81878 | -96.75924 | 37796 ft | 438 kts | 340° |
| 2026-04-25 23:26 | 35.87859 | -96.77341 | 37797 ft | 438 kts | 340° |
| 2026-04-25 23:26 | 35.93824 | -96.78758 | 37797 ft | 438 kts | 340° |
| 2026-04-25 23:27 | 35.99830 | -96.80186 | 37797 ft | 439 kts | 340° |
| 2026-04-25 23:27 | 36.05811 | -96.81610 | 37799 ft | 439 kts | 340° |
| 2026-04-25 23:28 | 36.11800 | -96.83035 | 37134 ft | 438 kts | 340° |
| 2026-04-25 23:28 | 36.14771 | -96.83748 | 36416 ft | 443 kts | 340° |
| 2026-04-25 23:28 | 36.17825 | -96.84480 | 35664 ft | 448 kts | 340° |
| 2026-04-25 23:28 | 36.20879 | -96.85212 | 34838 ft | 453 kts | 340° |
| 2026-04-25 23:29 | 36.23988 | -96.85957 | 33995 ft | 456 kts | 340° |
| 2026-04-25 23:29 | 36.27073 | -96.86695 | 33175 ft | 458 kts | 340° |
| 2026-04-25 23:29 | 36.30240 | -96.87454 | 32283 ft | 460 kts | 340° |
| 2026-04-25 23:29 | 36.33369 | -96.88204 | 31272 ft | 460 kts | 340° |
| 2026-04-25 23:30 | 36.36507 | -96.88957 | 30390 ft | 453 kts | 340° |
| 2026-04-25 23:30 | 36.39558 | -96.89683 | 29867 ft | 439 kts | 340° |
| 2026-04-25 23:30 | 36.42493 | -96.90382 | 29409 ft | 425 kts | 340° |
| 2026-04-25 23:30 | 36.45404 | -96.91083 | 28935 ft | 430 kts | 340° |
| 2026-04-25 23:31 | 36.48379 | -96.91810 | 28426 ft | 441 kts | 340° |
| 2026-04-25 23:31 | 36.51407 | -96.92541 | 27884 ft | 440 kts | 341° |
| 2026-04-25 23:31 | 36.54402 | -96.93261 | 27358 ft | 437 kts | 341° |
| 2026-04-25 23:31 | 36.57362 | -96.93974 | 26889 ft | 438 kts | 341° |
| 2026-04-25 23:32 | 36.60350 | -96.94697 | 26345 ft | 437 kts | 341° |
| 2026-04-25 23:32 | 36.63318 | -96.95413 | 25794 ft | 433 kts | 341° |
| 2026-04-25 23:32 | 36.66248 | -96.96121 | 25236 ft | 429 kts | 341° |
| 2026-04-25 23:32 | 36.69182 | -96.96831 | 24634 ft | 426 kts | 341° |
| 2026-04-25 23:33 | 36.72073 | -96.97531 | 24070 ft | 423 kts | 341° |
| 2026-04-25 23:33 | 36.74947 | -96.98229 | 23513 ft | 422 kts | 341° |
| 2026-04-25 23:33 | 36.77831 | -96.98929 | 22958 ft | 421 kts | 341° |
| 2026-04-25 23:33 | 36.80707 | -96.99628 | 22410 ft | 419 kts | 341° |
| 2026-04-25 23:34 | 36.83540 | -97.00317 | 21852 ft | 417 kts | 341° |
| 2026-04-25 23:34 | 36.86404 | -97.01013 | 21281 ft | 415 kts | 342° |
| 2026-04-25 23:34 | 36.89216 | -97.01698 | 20722 ft | 413 kts | 342° |
| 2026-04-25 23:34 | 36.92030 | -97.02384 | 20160 ft | 411 kts | 342° |
| 2026-04-25 23:35 | 36.94833 | -97.03068 | 19589 ft | 409 kts | 342° |
| 2026-04-25 23:35 | 36.97608 | -97.03745 | 19018 ft | 407 kts | 342° |
| 2026-04-25 23:35 | 37.00359 | -97.04417 | 18439 ft | 405 kts | 343° |
| 2026-04-25 23:35 | 37.03125 | -97.05093 | 17857 ft | 404 kts | 343° |
| 2026-04-25 23:36 | 37.05889 | -97.05769 | 17275 ft | 402 kts | 343° |
| 2026-04-25 23:36 | 37.08595 | -97.06432 | 16696 ft | 401 kts | 343° |
| 2026-04-25 23:36 | 37.11348 | -97.07105 | 16192 ft | 398 kts | 343° |
| 2026-04-25 23:36 | 37.14069 | -97.07774 | 15678 ft | 399 kts | 344° |
| 2026-04-25 23:37 | 37.16781 | -97.08439 | 15108 ft | 397 kts | 344° |
| 2026-04-25 23:37 | 37.19483 | -97.09104 | 14522 ft | 394 kts | 343° |
| 2026-04-25 23:37 | 37.22100 | -97.10012 | 14039 ft | 385 kts | 338° |
| 2026-04-25 23:37 | 37.24579 | -97.11016 | 13969 ft | 367 kts | 337° |
| 2026-04-25 23:38 | 37.27081 | -97.12018 | 13947 ft | 385 kts | 338° |
| 2026-04-25 23:38 | 37.29702 | -97.12862 | 13917 ft | 394 kts | 347° |
| 2026-04-25 23:38 | 37.32438 | -97.13104 | 13879 ft | 400 kts | 359° |
| 2026-04-25 23:38 | 37.35253 | -97.12838 | 13876 ft | 402 kts | 2° |
| 2026-04-25 23:39 | 37.38030 | -97.12550 | 13733 ft | 404 kts | 2° |
| 2026-04-25 23:39 | 37.40805 | -97.12174 | 13317 ft | 402 kts | 8° |
| 2026-04-25 23:39 | 37.43518 | -97.11382 | 12884 ft | 399 kts | 12° |
| 2026-04-25 23:39 | 37.46202 | -97.10498 | 12444 ft | 394 kts | 13° |
| 2026-04-25 23:40 | 37.48815 | -97.09591 | 11911 ft | 380 kts | 13° |
| 2026-04-25 23:40 | 37.51302 | -97.08740 | 11471 ft | 363 kts | 13° |
| 2026-04-25 23:40 | 37.53693 | -97.07947 | 11044 ft | 349 kts | 12° |
| 2026-04-25 23:40 | 37.55991 | -97.07192 | 10609 ft | 337 kts | 13° |
| 2026-04-25 23:41 | 37.58200 | -97.06433 | 10298 ft | 322 kts | 13° |
| 2026-04-25 23:41 | 37.60348 | -97.05733 | 10052 ft | 314 kts | 12° |
| 2026-04-25 23:41 | 37.62451 | -97.05111 | 9793 ft | 312 kts | 12° |
| 2026-04-25 23:41 | 37.64575 | -97.04464 | 9558 ft | 310 kts | 14° |
| 2026-04-25 23:42 | 37.66655 | -97.03841 | 9299 ft | 303 kts | 13° |
| 2026-04-25 23:42 | 37.68684 | -97.03239 | 9055 ft | 297 kts | 12° |
| 2026-04-25 23:42 | 37.70673 | -97.02676 | 8905 ft | 296 kts | 13° |
| 2026-04-25 23:42 | 37.72687 | -97.02076 | 8830 ft | 298 kts | 12° |
| 2026-04-25 23:43 | 37.74728 | -97.01508 | 8390 ft | 299 kts | 12° |
| 2026-04-25 23:43 | 37.76755 | -97.00952 | 7748 ft | 296 kts | 13° |
| 2026-04-25 23:43 | 37.78724 | -97.00421 | 6917 ft | 290 kts | 12° |
| 2026-04-25 23:43 | 37.80664 | -96.99981 | 6038 ft | 285 kts | 1° |
| 2026-04-25 23:44 | 37.82571 | -97.00462 | 5117 ft | 278 kts | 333° |
| 2026-04-25 23:44 | 37.84023 | -97.01931 | 4215 ft | 271 kts | 305° |
| 2026-04-25 23:44 | 37.84773 | -97.04066 | 3180 ft | 272 kts | 276° |
| 2026-04-25 23:44 | 37.84676 | -97.06358 | 2938 ft | 263 kts | 260° |
| 2026-04-25 23:45 | 37.84469 | -97.08675 | 3200 ft | 272 kts | 264° |
| 2026-04-25 23:45 | 37.84448 | -97.10987 | 3242 ft | 265 kts | 270° |
| 2026-04-25 23:45 | 37.84396 | -97.13376 | 3156 ft | 265 kts | 263° |
| 2026-04-25 23:45 | 37.84273 | -97.15619 | 3156 ft | 252 kts | 264° |
| 2026-04-25 23:46 | 37.84182 | -97.17799 | 3147 ft | 240 kts | 264° |
| 2026-04-25 23:46 | 37.84100 | -97.19837 | 3137 ft | 227 kts | 264° |
| 2026-04-25 23:46 | 37.84013 | -97.21787 | 3107 ft | 216 kts | 264° |
| 2026-04-25 23:46 | 37.83961 | -97.23782 | 2981 ft | 248 kts | 267° |
| 2026-04-25 23:47 | 37.83928 | -97.26027 | 3294 ft | 266 kts | 265° |
| 2026-04-25 23:47 | 37.83816 | -97.28388 | 3030 ft | 266 kts | 264° |
| 2026-04-25 23:47 | 37.83689 | -97.30675 | 2943 ft | 257 kts | 263° |
| 2026-04-25 23:47 | 37.83550 | -97.32857 | 2924 ft | 241 kts | 257° |
| 2026-04-25 23:48 | 37.82945 | -97.34687 | 2923 ft | 214 kts | 230° |
| 2026-04-25 23:48 | 37.81921 | -97.35861 | 2924 ft | 191 kts | 208° |
| 2026-04-25 23:48 | 37.80783 | -97.36645 | 2929 ft | 181 kts | 201° |
| 2026-04-25 23:48 | 37.79619 | -97.37242 | 2930 ft | 175 kts | 195° |
| 2026-04-25 23:49 | 37.78475 | -97.37752 | 2951 ft | 174 kts | 194° |
| 2026-04-25 23:49 | 37.77316 | -97.38289 | 2935 ft | 176 kts | 195° |
| 2026-04-25 23:49 | 37.76165 | -97.38820 | 2929 ft | 174 kts | 195° |
| 2026-04-25 23:49 | 37.75017 | -97.39324 | 2922 ft | 176 kts | 197° |
| 2026-04-25 23:50 | 37.73850 | -97.39874 | 2915 ft | 177 kts | 196° |
| 2026-04-25 23:50 | 37.72688 | -97.40397 | 2633 ft | 170 kts | 196° |
| 2026-04-25 23:50 | 37.71615 | -97.40889 | 2337 ft | 158 kts | 197° |
| 2026-04-25 23:50 | 37.70618 | -97.41348 | 2103 ft | 152 kts | 196° |
| 2026-04-25 23:51 | 37.69632 | -97.41809 | 1881 ft | 148 kts | 196° |
| 2026-04-25 23:51 | 37.68678 | -97.42226 | 1727 ft | 141 kts | 195° |
| 2026-04-25 23:51 | 37.67710 | -97.42666 | 1651 ft | 153 kts | 198° |
| 2026-04-25 23:51 | 37.66727 | -97.43126 | 1510 ft | 148 kts | 197° |
| 2026-04-25 23:52 | 37.65732 | -97.43578 | 1361 ft | 150 kts | 198° |
| 2026-04-25 23:52 | 37.64865 | -97.43968 | 1332 ft | 111 kts | 200° |
| 2026-04-25 23:52 | 37.64294 | -97.44232 | 1320 ft | 61 kts | 199° |
| 2026-04-25 23:52 | 37.64059 | -97.44327 | 1316 ft | 20 kts | 173° |
| 2026-04-25 23:53 | 37.64000 | -97.44258 | 1315 ft | 12 kts | 78° |
| 2026-04-25 23:53 | 37.64085 | -97.44187 | 1317 ft | 17 kts | 20° |
| 2026-04-25 23:53 | 37.64218 | -97.44125 | 1319 ft | 23 kts | 20° |
| 2026-04-25 23:53 | 37.64385 | -97.44048 | 1322 ft | 27 kts | 19° |
| 2026-04-25 23:54 | 37.64578 | -97.43960 | 1326 ft | 31 kts | 20° |
| 2026-04-25 23:54 | 37.64774 | -97.43872 | 1329 ft | 30 kts | 21° |
| 2026-04-25 23:54 | 37.64983 | -97.43774 | 1333 ft | 24 kts | 20° |
| 2026-04-25 23:54 | 37.65160 | -97.43692 | 1334 ft | 27 kts | 21° |
| 2026-04-25 23:55 | 37.65277 | -97.43572 | 1335 ft | 23 kts | 98° |
| 2026-04-25 23:55 | 37.65225 | -97.43361 | 1334 ft | 23 kts | 119° |
| 2026-04-25 23:55 | 37.65102 | -97.43231 | 1332 ft | 22 kts | 151° |
| 2026-04-25 23:55 | 37.65022 | -97.43109 | 1331 ft | 17 kts | 95° |
| 2026-04-25 23:56 | 37.65028 | -97.42975 | 1331 ft | 11 kts | 61° |
| 2026-04-25 23:56 | 37.65084 | -97.42960 | 1332 ft | 8 kts | 358° |
| 2026-04-25 23:56 | 37.65127 | -97.42961 | 1333 ft | 1 kts | 360° |